sensor_id;sensor_type;location;lat;lon;timestamp;pressure;altitude;pressure_sealevel;temperature;humidity
40502;BME280;29631;49.168;9.848;2023-02-22T00:00:41;96570.38;;;13.21;72.90
40502;BME280;29631;49.168;9.848;2023-02-22T00:05:36;96573.84;;;13.21;72.63
40502;BME280;29631;49.168;9.848;2023-02-22T00:08:05;96537.69;;;12.98;72.76
40502;BME280;29631;49.168;9.848;2023-02-22T00:10:34;96565.59;;;13.11;72.79
40502;BME280;29631;49.168;9.848;2023-02-22T00:13:06;96503.81;;;12.70;72.97
40502;BME280;29631;49.168;9.848;2023-02-22T00:15:33;96566.44;;;13.12;73.34
40502;BME280;29631;49.168;9.848;2023-02-22T00:18:00;96553.50;;;13.04;72.91
40502;BME280;29631;49.168;9.848;2023-02-22T00:20:26;96541.69;;;12.89;72.91
40502;BME280;29631;49.168;9.848;2023-02-22T00:22:53;96553.91;;;13.01;72.28
40502;BME280;29631;49.168;9.848;2023-02-22T00:25:22;96560.84;;;13.02;72.34
40502;BME280;29631;49.168;9.848;2023-02-22T00:27:50;96554.81;;;12.95;73.13
40502;BME280;29631;49.168;9.848;2023-02-22T00:30:24;96546.34;;;12.87;72.95
40502;BME280;29631;49.168;9.848;2023-02-22T00:32:52;96553.00;;;12.96;73.00
40502;BME280;29631;49.168;9.848;2023-02-22T00:35:20;96552.81;;;12.91;73.13
40502;BME280;29631;49.168;9.848;2023-02-22T00:37:48;96534.44;;;12.78;72.11
40502;BME280;29631;49.168;9.848;2023-02-22T00:40:18;96553.88;;;12.90;72.65
40502;BME280;29631;49.168;9.848;2023-02-22T00:42:45;96549.22;;;12.85;72.83
40502;BME280;29631;49.168;9.848;2023-02-22T00:45:11;96554.50;;;12.85;73.14
40502;BME280;29631;49.168;9.848;2023-02-22T00:47:37;96536.28;;;12.77;73.59
40502;BME280;29631;49.168;9.848;2023-02-22T00:50:04;96556.19;;;12.80;73.53
40502;BME280;29631;49.168;9.848;2023-02-22T00:52:30;96534.22;;;12.79;73.41
40502;BME280;29631;49.168;9.848;2023-02-22T00:54:56;96540.78;;;12.77;73.32
40502;BME280;29631;49.168;9.848;2023-02-22T00:57:23;96496.41;;;12.43;73.25
40502;BME280;29631;49.168;9.848;2023-02-22T00:59:49;96535.91;;;12.74;73.47
40502;BME280;29631;49.168;9.848;2023-02-22T01:02:16;96543.56;;;12.82;73.88
40502;BME280;29631;49.168;9.848;2023-02-22T01:04:42;96550.91;;;12.80;73.71
40502;BME280;29631;49.168;9.848;2023-02-22T01:07:08;96514.09;;;12.60;73.11
40502;BME280;29631;49.168;9.848;2023-02-22T01:09:34;96547.09;;;12.76;73.35
40502;BME280;29631;49.168;9.848;2023-02-22T01:12:01;96526.66;;;12.65;73.71
40502;BME280;29631;49.168;9.848;2023-02-22T01:14:27;96520.19;;;12.61;73.28
40502;BME280;29631;49.168;9.848;2023-02-22T01:16:54;96518.56;;;12.60;73.96
40502;BME280;29631;49.168;9.848;2023-02-22T01:19:22;96481.47;;;12.30;73.88
40502;BME280;29631;49.168;9.848;2023-02-22T01:21:49;96546.19;;;12.82;74.15
40502;BME280;29631;49.168;9.848;2023-02-22T01:24:15;96545.00;;;12.78;74.27
40502;BME280;29631;49.168;9.848;2023-02-22T01:26:43;96526.94;;;12.75;74.24
40502;BME280;29631;49.168;9.848;2023-02-22T01:29:14;96535.47;;;12.77;74.37
40502;BME280;29631;49.168;9.848;2023-02-22T01:31:51;96541.94;;;12.81;73.42
40502;BME280;29631;49.168;9.848;2023-02-22T01:34:20;96524.91;;;12.77;74.25
40502;BME280;29631;49.168;9.848;2023-02-22T01:36:47;96530.97;;;12.77;73.75
40502;BME280;29631;49.168;9.848;2023-02-22T01:39:12;96518.56;;;12.78;73.64
40502;BME280;29631;49.168;9.848;2023-02-22T01:41:38;96522.41;;;12.82;74.74
40502;BME280;29631;49.168;9.848;2023-02-22T01:44:32;96516.00;;;12.71;74.11
40502;BME280;29631;49.168;9.848;2023-02-22T01:47:01;96523.28;;;12.76;73.75
40502;BME280;29631;49.168;9.848;2023-02-22T01:49:45;96511.97;;;12.69;74.44
40502;BME280;29631;49.168;9.848;2023-02-22T01:52:17;96499.50;;;12.58;74.53
40502;BME280;29631;49.168;9.848;2023-02-22T01:54:51;96512.38;;;12.66;74.09
40502;BME280;29631;49.168;9.848;2023-02-22T01:57:25;96507.69;;;12.68;73.78
40502;BME280;29631;49.168;9.848;2023-02-22T02:00:02;96499.03;;;12.61;73.94
40502;BME280;29631;49.168;9.848;2023-02-22T02:02:36;96498.81;;;12.62;73.97
40502;BME280;29631;49.168;9.848;2023-02-22T02:05:01;96491.56;;;12.58;74.37
40502;BME280;29631;49.168;9.848;2023-02-22T02:07:34;96513.13;;;12.73;74.66
40502;BME280;29631;49.168;9.848;2023-02-22T02:10:04;96479.91;;;12.59;74.26
40502;BME280;29631;49.168;9.848;2023-02-22T02:12:34;96504.63;;;12.71;74.44
40502;BME280;29631;49.168;9.848;2023-02-22T02:15:27;96482.19;;;12.55;74.69
40502;BME280;29631;49.168;9.848;2023-02-22T02:18:00;96502.28;;;12.63;74.63
40502;BME280;29631;49.168;9.848;2023-02-22T02:27:10;96500.06;;;12.60;74.22
40502;BME280;29631;49.168;9.848;2023-02-22T02:32:50;96500.94;;;12.54;74.15
40502;BME280;29631;49.168;9.848;2023-02-22T02:35:50;96489.78;;;12.52;73.72
40502;BME280;29631;49.168;9.848;2023-02-22T02:39:24;96461.44;;;12.41;74.25
40502;BME280;29631;49.168;9.848;2023-02-22T02:41:41;96473.19;;;12.45;74.23
40502;BME280;29631;49.168;9.848;2023-02-22T02:46:55;96445.56;;;12.23;74.51
40502;BME280;29631;49.168;9.848;2023-02-22T02:49:30;96450.25;;;12.21;74.02
40502;BME280;29631;49.168;9.848;2023-02-22T02:52:01;96449.25;;;12.22;73.92
40502;BME280;29631;49.168;9.848;2023-02-22T02:54:29;96477.16;;;12.36;74.54
40502;BME280;29631;49.168;9.848;2023-02-22T02:56:57;96455.03;;;12.30;74.10
40502;BME280;29631;49.168;9.848;2023-02-22T02:59:35;96457.53;;;12.26;73.83
40502;BME280;29631;49.168;9.848;2023-02-22T03:08:21;96453.78;;;12.15;73.90
40502;BME280;29631;49.168;9.848;2023-02-22T03:11:07;96439.47;;;12.05;73.84
40502;BME280;29631;49.168;9.848;2023-02-22T03:14:18;96437.28;;;12.02;73.93
40502;BME280;29631;49.168;9.848;2023-02-22T03:16:59;96434.69;;;11.95;74.30
40502;BME280;29631;49.168;9.848;2023-02-22T03:19:57;96439.53;;;11.98;73.83
40502;BME280;29631;49.168;9.848;2023-02-22T03:22:38;96432.50;;;11.92;74.00
40502;BME280;29631;49.168;9.848;2023-02-22T03:25:16;96432.88;;;11.96;74.43
40502;BME280;29631;49.168;9.848;2023-02-22T03:27:57;96423.38;;;11.88;74.30
40502;BME280;29631;49.168;9.848;2023-02-22T03:33:20;96411.72;;;11.78;74.90
40502;BME280;29631;49.168;9.848;2023-02-22T03:36:00;96416.16;;;11.77;74.75
40502;BME280;29631;49.168;9.848;2023-02-22T03:38:29;96429.09;;;11.85;74.58
40502;BME280;29631;49.168;9.848;2023-02-22T03:41:00;96407.22;;;11.78;74.24
40502;BME280;29631;49.168;9.848;2023-02-22T03:43:40;96419.63;;;11.78;75.30
40502;BME280;29631;49.168;9.848;2023-02-22T03:46:08;96401.19;;;11.71;75.01
40502;BME280;29631;49.168;9.848;2023-02-22T03:49:10;96419.78;;;11.83;75.20
40502;BME280;29631;49.168;9.848;2023-02-22T03:51:36;96415.75;;;11.80;75.50
40502;BME280;29631;49.168;9.848;2023-02-22T03:54:05;96412.19;;;11.68;74.65
40502;BME280;29631;49.168;9.848;2023-02-22T03:56:37;96416.16;;;11.77;75.33
40502;BME280;29631;49.168;9.848;2023-02-22T03:59:07;96401.06;;;11.66;75.79
40502;BME280;29631;49.168;9.848;2023-02-22T04:01:34;96426.72;;;11.77;74.90
40502;BME280;29631;49.168;9.848;2023-02-22T04:04:00;96360.41;;;11.43;75.31
40502;BME280;29631;49.168;9.848;2023-02-22T04:06:27;96393.56;;;11.63;75.41
40502;BME280;29631;49.168;9.848;2023-02-22T04:08:54;96422.06;;;11.79;75.72
40502;BME280;29631;49.168;9.848;2023-02-22T04:11:20;96418.22;;;11.75;75.90
40502;BME280;29631;49.168;9.848;2023-02-22T04:13:46;96413.69;;;11.82;75.19
40502;BME280;29631;49.168;9.848;2023-02-22T04:16:12;96404.00;;;11.76;75.48
40502;BME280;29631;49.168;9.848;2023-02-22T04:18:37;96415.53;;;11.82;76.47
40502;BME280;29631;49.168;9.848;2023-02-22T04:21:03;96402.81;;;11.72;76.43
40502;BME280;29631;49.168;9.848;2023-02-22T04:23:29;96379.84;;;11.55;76.17
40502;BME280;29631;49.168;9.848;2023-02-22T04:25:55;96426.59;;;11.90;75.55
40502;BME280;29631;49.168;9.848;2023-02-22T04:28:21;96405.34;;;11.85;75.46
40502;BME280;29631;49.168;9.848;2023-02-22T04:30:46;96394.81;;;11.79;76.32
40502;BME280;29631;49.168;9.848;2023-02-22T04:33:12;96349.41;;;11.53;75.88
40502;BME280;29631;49.168;9.848;2023-02-22T04:35:38;96405.72;;;11.89;76.55
40502;BME280;29631;49.168;9.848;2023-02-22T04:38:04;96398.19;;;11.86;76.23
40502;BME280;29631;49.168;9.848;2023-02-22T04:40:31;96385.06;;;11.79;75.95
40502;BME280;29631;49.168;9.848;2023-02-22T04:42:56;96409.28;;;11.94;76.21
40502;BME280;29631;49.168;9.848;2023-02-22T04:45:22;96383.22;;;11.80;75.81
40502;BME280;29631;49.168;9.848;2023-02-22T04:47:48;96382.22;;;11.81;75.29
40502;BME280;29631;49.168;9.848;2023-02-22T04:50:15;96385.22;;;11.84;75.68
40502;BME280;29631;49.168;9.848;2023-02-22T04:52:40;96381.63;;;11.79;75.55
40502;BME280;29631;49.168;9.848;2023-02-22T04:55:07;96407.88;;;11.92;75.64
40502;BME280;29631;49.168;9.848;2023-02-22T04:57:32;96390.09;;;11.87;75.38
40502;BME280;29631;49.168;9.848;2023-02-22T04:59:58;96381.97;;;11.82;75.61
40502;BME280;29631;49.168;9.848;2023-02-22T05:02:24;96397.56;;;11.90;75.51
40502;BME280;29631;49.168;9.848;2023-02-22T05:04:50;96375.09;;;11.81;76.20
40502;BME280;29631;49.168;9.848;2023-02-22T05:07:16;96392.28;;;11.90;75.43
40502;BME280;29631;49.168;9.848;2023-02-22T05:09:42;96384.81;;;11.87;76.14
40502;BME280;29631;49.168;9.848;2023-02-22T05:12:08;96379.34;;;11.82;76.13
40502;BME280;29631;49.168;9.848;2023-02-22T05:14:34;96400.78;;;11.92;75.67
40502;BME280;29631;49.168;9.848;2023-02-22T05:17:01;96364.66;;;11.68;76.14
40502;BME280;29631;49.168;9.848;2023-02-22T05:19:27;96381.78;;;11.84;75.97
40502;BME280;29631;49.168;9.848;2023-02-22T05:21:53;96371.50;;;11.76;75.89
40502;BME280;29631;49.168;9.848;2023-02-22T05:24:21;96378.78;;;11.80;76.25
40502;BME280;29631;49.168;9.848;2023-02-22T05:26:47;96384.84;;;11.81;76.28
40502;BME280;29631;49.168;9.848;2023-02-22T05:29:13;96382.44;;;11.79;75.92
40502;BME280;29631;49.168;9.848;2023-02-22T05:31:39;96381.91;;;11.71;75.91
40502;BME280;29631;49.168;9.848;2023-02-22T05:34:06;96355.41;;;11.59;75.90
40502;BME280;29631;49.168;9.848;2023-02-22T05:36:32;96384.34;;;11.72;75.84
40502;BME280;29631;49.168;9.848;2023-02-22T05:38:57;96372.56;;;11.68;75.27
40502;BME280;29631;49.168;9.848;2023-02-22T05:41:23;96310.63;;;11.29;75.66
40502;BME280;29631;49.168;9.848;2023-02-22T05:43:49;96375.59;;;11.72;75.46
40502;BME280;29631;49.168;9.848;2023-02-22T05:46:15;96340.47;;;11.54;75.84
40502;BME280;29631;49.168;9.848;2023-02-22T05:48:41;96353.47;;;11.49;75.46
40502;BME280;29631;49.168;9.848;2023-02-22T05:51:06;96378.03;;;11.73;75.40
40502;BME280;29631;49.168;9.848;2023-02-22T05:53:34;96369.94;;;11.68;75.79
40502;BME280;29631;49.168;9.848;2023-02-22T05:56:00;96347.56;;;11.53;75.15
40502;BME280;29631;49.168;9.848;2023-02-22T05:58:25;96330.75;;;11.48;75.23
40502;BME280;29631;49.168;9.848;2023-02-22T06:00:51;96372.00;;;11.66;75.09
40502;BME280;29631;49.168;9.848;2023-02-22T06:03:17;96369.66;;;11.58;75.72
40502;BME280;29631;49.168;9.848;2023-02-22T06:05:43;96330.22;;;11.39;75.75
40502;BME280;29631;49.168;9.848;2023-02-22T06:08:10;96351.84;;;11.48;75.10
40502;BME280;29631;49.168;9.848;2023-02-22T06:10:35;96359.97;;;11.46;75.27
40502;BME280;29631;49.168;9.848;2023-02-22T06:13:02;96333.28;;;11.36;75.05
40502;BME280;29631;49.168;9.848;2023-02-22T06:15:28;96348.09;;;11.37;74.90
40502;BME280;29631;49.168;9.848;2023-02-22T06:17:55;96353.16;;;11.39;75.43
40502;BME280;29631;49.168;9.848;2023-02-22T06:20:24;96359.19;;;11.46;76.42
40502;BME280;29631;49.168;9.848;2023-02-22T06:22:52;96368.97;;;11.39;75.41
40502;BME280;29631;49.168;9.848;2023-02-22T06:25:22;96356.81;;;11.38;75.62
40502;BME280;29631;49.168;9.848;2023-02-22T06:27:49;96353.59;;;11.36;75.62
40502;BME280;29631;49.168;9.848;2023-02-22T06:30:19;96357.25;;;11.35;76.03
40502;BME280;29631;49.168;9.848;2023-02-22T06:32:45;96354.25;;;11.31;75.31
40502;BME280;29631;49.168;9.848;2023-02-22T06:35:11;96375.44;;;11.43;76.29
40502;BME280;29631;49.168;9.848;2023-02-22T06:37:39;96355.41;;;11.35;75.58
40502;BME280;29631;49.168;9.848;2023-02-22T06:40:05;96342.72;;;11.26;75.66
40502;BME280;29631;49.168;9.848;2023-02-22T06:42:31;96361.50;;;11.36;75.93
40502;BME280;29631;49.168;9.848;2023-02-22T06:44:56;96368.13;;;11.45;75.94
40502;BME280;29631;49.168;9.848;2023-02-22T06:47:22;96374.38;;;11.50;76.40
40502;BME280;29631;49.168;9.848;2023-02-22T06:49:53;96361.81;;;11.46;76.00
40502;BME280;29631;49.168;9.848;2023-02-22T06:52:19;96362.84;;;11.45;76.67
40502;BME280;29631;49.168;9.848;2023-02-22T06:54:45;96329.09;;;11.29;76.79
40502;BME280;29631;49.168;9.848;2023-02-22T06:57:11;96347.59;;;11.47;76.35
40502;BME280;29631;49.168;9.848;2023-02-22T06:59:36;96377.28;;;11.66;76.79
40502;BME280;29631;49.168;9.848;2023-02-22T07:02:02;96377.66;;;11.70;76.43
40502;BME280;29631;49.168;9.848;2023-02-22T07:04:29;96381.19;;;11.82;76.32
40502;BME280;29631;49.168;9.848;2023-02-22T07:06:54;96373.19;;;11.70;77.15
40502;BME280;29631;49.168;9.848;2023-02-22T07:09:20;96388.59;;;11.91;77.23
40502;BME280;29631;49.168;9.848;2023-02-22T07:11:46;96383.47;;;11.96;76.93
40502;BME280;29631;49.168;9.848;2023-02-22T07:14:12;96356.41;;;11.83;76.75
40502;BME280;29631;49.168;9.848;2023-02-22T07:16:38;96367.19;;;11.99;77.73
40502;BME280;29631;49.168;9.848;2023-02-22T07:19:03;96396.66;;;12.14;77.36
40502;BME280;29631;49.168;9.848;2023-02-22T07:21:29;96361.44;;;12.02;78.17
40502;BME280;29631;49.168;9.848;2023-02-22T07:23:56;96376.91;;;12.17;76.91
40502;BME280;29631;49.168;9.848;2023-02-22T07:26:25;96387.00;;;12.26;77.85
40502;BME280;29631;49.168;9.848;2023-02-22T07:28:51;96404.09;;;12.41;77.28
40502;BME280;29631;49.168;9.848;2023-02-22T07:31:17;96384.19;;;12.39;77.73
40502;BME280;29631;49.168;9.848;2023-02-22T07:33:45;96374.19;;;12.41;77.38
40502;BME280;29631;49.168;9.848;2023-02-22T07:36:12;96333.97;;;12.21;77.53
40502;BME280;29631;49.168;9.848;2023-02-22T07:38:39;96362.41;;;12.55;77.96
40502;BME280;29631;49.168;9.848;2023-02-22T07:41:05;96320.69;;;12.28;77.79
40502;BME280;29631;49.168;9.848;2023-02-22T07:43:31;96385.97;;;12.86;77.86
40502;BME280;29631;49.168;9.848;2023-02-22T07:45:59;96365.72;;;12.80;78.41
40502;BME280;29631;49.168;9.848;2023-02-22T07:48:29;96390.22;;;13.04;78.62
40502;BME280;29631;49.168;9.848;2023-02-22T07:50:57;96376.31;;;13.09;78.64
40502;BME280;29631;49.168;9.848;2023-02-22T07:53:26;96366.06;;;13.12;78.88
40502;BME280;29631;49.168;9.848;2023-02-22T07:55:56;96387.75;;;13.32;78.90
40502;BME280;29631;49.168;9.848;2023-02-22T07:58:25;96398.38;;;13.44;78.69
40502;BME280;29631;49.168;9.848;2023-02-22T08:00:52;96373.00;;;13.36;79.04
40502;BME280;29631;49.168;9.848;2023-02-22T08:03:20;96378.09;;;13.49;79.01
40502;BME280;29631;49.168;9.848;2023-02-22T08:05:56;96403.44;;;13.68;80.28
40502;BME280;29631;49.168;9.848;2023-02-22T08:08:22;96370.38;;;13.59;79.99
40502;BME280;29631;49.168;9.848;2023-02-22T08:10:50;96397.69;;;13.82;80.41
40502;BME280;29631;49.168;9.848;2023-02-22T08:13:17;96371.41;;;13.81;79.68
40502;BME280;29631;49.168;9.848;2023-02-22T08:15:43;96365.75;;;13.89;80.38
40502;BME280;29631;49.168;9.848;2023-02-22T08:18:12;96385.22;;;14.06;80.04
40502;BME280;29631;49.168;9.848;2023-02-22T08:20:41;96364.03;;;14.06;80.37
40502;BME280;29631;49.168;9.848;2023-02-22T08:23:08;96365.03;;;14.16;80.76
40502;BME280;29631;49.168;9.848;2023-02-22T08:25:34;96387.50;;;14.37;80.56
40502;BME280;29631;49.168;9.848;2023-02-22T08:28:04;96381.25;;;14.43;80.95
40502;BME280;29631;49.168;9.848;2023-02-22T08:30:32;96388.69;;;14.57;80.74
40502;BME280;29631;49.168;9.848;2023-02-22T08:33:00;96391.31;;;14.68;80.75
40502;BME280;29631;49.168;9.848;2023-02-22T08:35:28;96376.19;;;14.69;80.38
40502;BME280;29631;49.168;9.848;2023-02-22T08:37:59;96375.03;;;14.76;80.04
40502;BME280;29631;49.168;9.848;2023-02-22T08:40:29;96372.63;;;14.91;79.71
40502;BME280;29631;49.168;9.848;2023-02-22T08:42:56;96362.66;;;14.98;79.61
40502;BME280;29631;49.168;9.848;2023-02-22T08:45:22;96386.00;;;15.24;79.33
40502;BME280;29631;49.168;9.848;2023-02-22T08:47:48;96375.25;;;15.47;79.18
40502;BME280;29631;49.168;9.848;2023-02-22T08:50:23;96365.97;;;16.03;78.42
40502;BME280;29631;49.168;9.848;2023-02-22T08:52:51;96373.19;;;16.67;76.96
40502;BME280;29631;49.168;9.848;2023-02-22T08:55:26;96380.16;;;17.21;76.11
40502;BME280;29631;49.168;9.848;2023-02-22T08:57:53;96386.94;;;17.59;75.07
40502;BME280;29631;49.168;9.848;2023-02-22T09:00:20;96382.91;;;17.93;75.52
40502;BME280;29631;49.168;9.848;2023-02-22T09:02:52;96380.28;;;18.39;74.89
40502;BME280;29631;49.168;9.848;2023-02-22T09:05:19;96392.00;;;19.04;73.73
40502;BME280;29631;49.168;9.848;2023-02-22T09:07:45;96384.34;;;19.53;72.71
40502;BME280;29631;49.168;9.848;2023-02-22T09:10:20;96387.81;;;19.83;73.01
40502;BME280;29631;49.168;9.848;2023-02-22T09:12:52;96377.66;;;20.00;72.90
40502;BME280;29631;49.168;9.848;2023-02-22T09:15:21;96400.66;;;20.31;72.64
40502;BME280;29631;49.168;9.848;2023-02-22T09:17:47;96369.56;;;20.35;72.90
40502;BME280;29631;49.168;9.848;2023-02-22T09:20:15;96387.69;;;20.62;73.00
40502;BME280;29631;49.168;9.848;2023-02-22T09:22:45;96367.22;;;20.86;72.23
40502;BME280;29631;49.168;9.848;2023-02-22T09:25:11;96386.16;;;21.48;72.21
40502;BME280;29631;49.168;9.848;2023-02-22T09:27:37;96369.88;;;21.78;71.22
40502;BME280;29631;49.168;9.848;2023-02-22T09:30:05;96390.09;;;22.22;71.15
40502;BME280;29631;49.168;9.848;2023-02-22T09:32:31;96366.50;;;22.47;70.02
40502;BME280;29631;49.168;9.848;2023-02-22T09:34:57;96398.91;;;22.79;70.07
40502;BME280;29631;49.168;9.848;2023-02-22T09:37:23;96398.81;;;22.66;70.67
40502;BME280;29631;49.168;9.848;2023-02-22T09:39:48;96390.69;;;22.47;71.75
40502;BME280;29631;49.168;9.848;2023-02-22T09:42:33;96393.03;;;22.54;71.88
40502;BME280;29631;49.168;9.848;2023-02-22T09:45:15;96386.56;;;22.78;71.36
40502;BME280;29631;49.168;9.848;2023-02-22T09:47:49;96369.53;;;22.64;71.76
40502;BME280;29631;49.168;9.848;2023-02-22T09:50:23;96388.63;;;22.63;71.67
40502;BME280;29631;49.168;9.848;2023-02-22T09:56:03;96367.59;;;22.46;71.69
40502;BME280;29631;49.168;9.848;2023-02-22T09:58:41;96369.69;;;22.72;71.04
40502;BME280;29631;49.168;9.848;2023-02-22T10:01:27;96383.09;;;23.19;69.58
40502;BME280;29631;49.168;9.848;2023-02-22T10:07:17;96371.69;;;23.27;68.68
40502;BME280;29631;49.168;9.848;2023-02-22T10:09:47;96370.94;;;23.22;70.00
40502;BME280;29631;49.168;9.848;2023-02-22T10:21:27;96366.91;;;23.01;69.63
40502;BME280;29631;49.168;9.848;2023-02-22T10:26:57;96352.78;;;22.90;69.90
40502;BME280;29631;49.168;9.848;2023-02-22T10:29:40;96365.78;;;22.83;69.01
40502;BME280;29631;49.168;9.848;2023-02-22T10:33:04;96338.41;;;22.58;69.53
40502;BME280;29631;49.168;9.848;2023-02-22T10:35:16;96349.16;;;22.58;70.51
40502;BME280;29631;49.168;9.848;2023-02-22T10:37:44;96354.91;;;22.52;70.33
40502;BME280;29631;49.168;9.848;2023-02-22T10:40:17;96353.63;;;22.44;69.64
40502;BME280;29631;49.168;9.848;2023-02-22T10:42:44;96353.75;;;22.34;69.67
40502;BME280;29631;49.168;9.848;2023-02-22T10:47:46;96348.72;;;22.23;69.56
40502;BME280;29631;49.168;9.848;2023-02-22T10:50:12;96352.78;;;22.20;69.97
40502;BME280;29631;49.168;9.848;2023-02-22T10:52:39;96325.59;;;21.98;69.96
40502;BME280;29631;49.168;9.848;2023-02-22T10:55:05;96334.94;;;22.06;69.60
40502;BME280;29631;49.168;9.848;2023-02-22T10:57:37;96336.31;;;22.03;69.30
40502;BME280;29631;49.168;9.848;2023-02-22T11:00:32;96320.28;;;21.93;68.82
40502;BME280;29631;49.168;9.848;2023-02-22T11:03:19;96334.94;;;22.06;69.10
40502;BME280;29631;49.168;9.848;2023-02-22T11:05:46;96326.13;;;22.00;69.27
40502;BME280;29631;49.168;9.848;2023-02-22T11:08:27;96305.91;;;21.85;69.19
40502;BME280;29631;49.168;9.848;2023-02-22T11:11:00;96325.59;;;21.98;69.29
40502;BME280;29631;49.168;9.848;2023-02-22T11:13:32;96316.53;;;21.94;69.00
40502;BME280;29631;49.168;9.848;2023-02-22T11:16:01;96306.88;;;21.93;69.71
40502;BME280;29631;49.168;9.848;2023-02-22T11:18:41;96304.19;;;21.93;69.41
40502;BME280;29631;49.168;9.848;2023-02-22T11:21:10;96299.91;;;21.92;69.05
40502;BME280;29631;49.168;9.848;2023-02-22T11:23:39;96297.22;;;21.92;69.28
40502;BME280;29631;49.168;9.848;2023-02-22T11:26:16;96285.22;;;21.85;68.82
40502;BME280;29631;49.168;9.848;2023-02-22T11:28:49;96299.63;;;21.94;68.53
40502;BME280;29631;49.168;9.848;2023-02-22T11:31:23;96298.50;;;22.00;68.68
40502;BME280;29631;49.168;9.848;2023-02-22T11:33:54;96288.00;;;21.98;68.86
40502;BME280;29631;49.168;9.848;2023-02-22T11:38:58;96286.38;;;22.02;69.28
40502;BME280;29631;49.168;9.848;2023-02-22T11:41:34;96271.06;;;22.03;68.42
40502;BME280;29631;49.168;9.848;2023-02-22T11:44:29;96272.44;;;22.00;68.44
40502;BME280;29631;49.168;9.848;2023-02-22T11:46:59;96278.84;;;22.04;68.94
40502;BME280;29631;49.168;9.848;2023-02-22T11:49:43;96285.47;;;22.12;68.72
40502;BME280;29631;49.168;9.848;2023-02-22T11:52:39;96272.56;;;22.14;68.99
40502;BME280;29631;49.168;9.848;2023-02-22T11:55:23;96269.50;;;22.20;68.48
40502;BME280;29631;49.168;9.848;2023-02-22T12:01:20;96268.66;;;22.25;68.22
40502;BME280;29631;49.168;9.848;2023-02-22T12:06:46;96266.16;;;22.33;68.45
40502;BME280;29631;49.168;9.848;2023-02-22T12:09:38;96251.72;;;22.24;68.29
40502;BME280;29631;49.168;9.848;2023-02-22T12:12:18;96271.19;;;22.40;67.97
40502;BME280;29631;49.168;9.848;2023-02-22T12:20:47;96257.25;;;22.38;67.95
40502;BME280;29631;49.168;9.848;2023-02-22T12:26:37;96255.34;;;22.38;68.10
40502;BME280;29631;49.168;9.848;2023-02-22T12:32:13;96250.50;;;22.40;68.65
40502;BME280;29631;49.168;9.848;2023-02-22T12:34:49;96244.09;;;22.36;68.06
40502;BME280;29631;49.168;9.848;2023-02-22T12:37:27;96241.88;;;22.43;68.61
40502;BME280;29631;49.168;9.848;2023-02-22T12:42:52;96246.13;;;22.44;68.08
40502;BME280;29631;49.168;9.848;2023-02-22T12:48:50;96234.44;;;22.54;68.33
40502;BME280;29631;49.168;9.848;2023-02-22T12:57:36;96237.66;;;22.56;68.07
40502;BME280;29631;49.168;9.848;2023-02-22T13:00:43;96233.28;;;22.60;68.84
40502;BME280;29631;49.168;9.848;2023-02-22T13:17:58;96229.28;;;22.57;68.22
40502;BME280;29631;49.168;9.848;2023-02-22T13:26:49;96220.78;;;22.50;69.01
40502;BME280;29631;49.168;9.848;2023-02-22T13:29:30;96217.09;;;22.46;69.00
40502;BME280;29631;49.168;9.848;2023-02-22T13:41:18;96214.47;;;22.41;68.75
40502;BME280;29631;49.168;9.848;2023-02-22T13:47:05;96219.19;;;22.31;68.28
40502;BME280;29631;49.168;9.848;2023-02-22T13:52:42;96214.13;;;22.24;68.81
40502;BME280;29631;49.168;9.848;2023-02-22T13:55:20;96203.50;;;22.14;68.50
40502;BME280;29631;49.168;9.848;2023-02-22T13:57:49;96187.97;;;22.11;67.98
40502;BME280;29631;49.168;9.848;2023-02-22T14:10:47;96207.47;;;21.98;68.22
40502;BME280;29631;49.168;9.848;2023-02-22T14:13:20;96189.47;;;21.76;68.06
40502;BME280;29631;49.168;9.848;2023-02-22T14:18:43;96190.69;;;21.65;67.88
40502;BME280;29631;49.168;9.848;2023-02-22T14:21:23;96202.50;;;21.64;67.95
40502;BME280;29631;49.168;9.848;2023-02-22T14:23:52;96202.84;;;21.52;68.17
40502;BME280;29631;49.168;9.848;2023-02-22T14:26:30;96207.47;;;21.47;67.93
40502;BME280;29631;49.168;9.848;2023-02-22T14:34:19;96208.00;;;21.20;67.92
40502;BME280;29631;49.168;9.848;2023-02-22T14:42:13;96188.19;;;20.88;67.47
40502;BME280;29631;49.168;9.848;2023-02-22T14:47:47;96207.53;;;20.80;67.74
40502;BME280;29631;49.168;9.848;2023-02-22T14:56:00;96207.56;;;20.70;67.10
40502;BME280;29631;49.168;9.848;2023-02-22T14:58:51;96208.13;;;20.67;67.47
40502;BME280;29631;49.168;9.848;2023-02-22T15:01:36;96211.59;;;20.68;67.07
40502;BME280;29631;49.168;9.848;2023-02-22T15:04:26;96195.88;;;20.56;67.40
40502;BME280;29631;49.168;9.848;2023-02-22T15:06:55;96203.88;;;20.61;67.29
40502;BME280;29631;49.168;9.848;2023-02-22T15:09:24;96205.50;;;20.57;66.95
40502;BME280;29631;49.168;9.848;2023-02-22T15:14:32;96196.66;;;20.57;67.73
40502;BME280;29631;49.168;9.848;2023-02-22T15:17:16;96177.22;;;20.42;67.78
40502;BME280;29631;49.168;9.848;2023-02-22T15:19:43;96207.13;;;20.53;67.45
40502;BME280;29631;49.168;9.848;2023-02-22T15:22:37;96189.53;;;20.42;67.74
40502;BME280;29631;49.168;9.848;2023-02-22T15:25:07;96190.09;;;20.40;67.93
40502;BME280;29631;49.168;9.848;2023-02-22T15:27:34;96183.16;;;20.34;67.59
40502;BME280;29631;49.168;9.848;2023-02-22T15:30:08;96187.72;;;20.28;67.28
40502;BME280;29631;49.168;9.848;2023-02-22T15:32:40;96192.28;;;20.28;67.89
40502;BME280;29631;49.168;9.848;2023-02-22T15:35:18;96190.44;;;20.23;67.88
40502;BME280;29631;49.168;9.848;2023-02-22T15:37:45;96191.78;;;20.21;67.74
40502;BME280;29631;49.168;9.848;2023-02-22T15:40:18;96179.56;;;20.10;67.60
40502;BME280;29631;49.168;9.848;2023-02-22T15:42:51;96194.25;;;20.12;67.46
40502;BME280;29631;49.168;9.848;2023-02-22T15:45:23;96164.09;;;19.92;67.31
40502;BME280;29631;49.168;9.848;2023-02-22T15:47:51;96167.84;;;19.86;67.73
40502;BME280;29631;49.168;9.848;2023-02-22T15:50:26;96195.91;;;20.03;67.18